Time;durP1;ratioP1;P1;durP2;ratioP2;P2;SDS_P1;SDS_P2;PMS_P1;PMS_P2;Temp;Humidity;BMP_temperature;BMP_pressure;BME280_temperature;BME280_humidity;BME280_pressure;Samples;Min_cycle;Max_cycle;Signal;HPM_P1;HPM_P2
2023/10/01 00:00:15;;;;;;;10.82;4.55;;;10.40;99.90;;;;;;5018286;28;20024;-77
2023/10/01 00:02:41;;;;;;;11.00;4.07;;;10.40;99.90;;;;;;5035968;28;20053;-77
2023/10/01 00:05:08;;;;;;;5.95;3.63;;;10.40;99.90;;;;;;5018514;28;20389;-77
2023/10/01 00:07:37;;;;;;;5.18;2.92;;;10.40;99.90;;;;;;5036474;28;20021;-77
2023/10/01 00:10:06;;;;;;;7.90;3.15;;;10.40;99.90;;;;;;5018140;28;20018;-78
2023/10/01 00:12:33;;;;;;;6.93;3.85;;;10.40;99.90;;;;;;5036219;28;20517;-77
2023/10/01 00:14:59;;;;;;;9.52;3.30;;;10.30;99.90;;;;;;5019122;28;20033;-77
2023/10/01 00:17:24;;;;;;;3.78;3.13;;;10.20;99.90;;;;;;5019654;28;20033;-78
2023/10/01 00:19:50;;;;;;;5.50;3.42;;;10.30;99.90;;;;;;5037234;28;20428;-78
2023/10/01 00:22:17;;;;;;;5.57;4.05;;;10.30;99.90;;;;;;5039021;28;20125;-78
2023/10/01 00:24:43;;;;;;;12.90;3.72;;;10.20;99.90;;;;;;5037916;28;20362;-78
2023/10/01 00:27:09;;;;;;;8.45;4.60;;;10.10;99.90;;;;;;5037050;28;20030;-77
2023/10/01 00:29:35;;;;;;;8.70;2.95;;;10.20;99.90;;;;;;5037040;28;20022;-76
2023/10/01 00:32:00;;;;;;;7.00;3.72;;;10.10;99.90;;;;;;5036478;28;20036;-78
2023/10/01 00:34:26;;;;;;;4.65;2.33;;;10.10;99.90;;;;;;5035862;28;20017;-78
2023/10/01 00:36:52;;;;;;;7.70;2.95;;;10.00;99.90;;;;;;5035819;28;20030;-78
2023/10/01 00:39:19;;;;;;;10.57;3.22;;;10.00;99.90;;;;;;5018359;28;20041;-77
2023/10/01 00:41:45;;;;;;;7.35;3.60;;;9.90;99.90;;;;;;5035937;28;20033;-77
2023/10/01 00:44:12;;;;;;;12.73;4.40;;;10.00;99.90;;;;;;5036881;28;20076;-78
2023/10/01 00:46:38;;;;;;;15.05;4.20;;;10.00;99.90;;;;;;5036382;28;20026;-78
2023/10/01 00:49:05;;;;;;;10.25;4.13;;;10.00;99.90;;;;;;5036559;28;20022;-78
2023/10/01 00:51:32;;;;;;;4.13;3.13;;;10.00;99.90;;;;;;5036441;28;20029;-79
2023/10/01 00:54:01;;;;;;;4.95;3.15;;;10.10;99.90;;;;;;5035673;28;20025;-78
2023/10/01 00:56:27;;;;;;;;;;;10.20;99.90;;;;;;5036351;28;20474;-77
2023/10/01 00:58:53;;;;;;;8.13;3.00;;;10.10;99.90;;;;;;5036409;28;19959;-77
2023/10/01 01:01:19;;;;;;;6.32;3.45;;;9.90;99.90;;;;;;5036370;28;20025;-78
2023/10/01 01:03:52;;;;;;;6.55;3.35;;;9.80;99.90;;;;;;5018096;28;20359;-78
2023/10/01 01:06:23;;;;;;;9.82;4.63;;;9.80;99.90;;;;;;5036418;28;20021;-78
2023/10/01 01:08:56;;;;;;;3.75;2.55;;;9.80;99.90;;;;;;5036220;28;20026;-78
2023/10/01 01:11:22;;;;;;;9.40;3.58;;;9.80;99.90;;;;;;5035814;28;20474;-79
2023/10/01 01:13:51;;;;;;;12.73;3.55;;;9.80;99.90;;;;;;5035524;28;20044;-78
2023/10/01 01:16:19;;;;;;;;;;;9.80;99.90;;;;;;5035967;28;20080;-78
2023/10/01 01:18:47;;;;;;;6.25;3.33;;;9.60;99.90;;;;;;5035592;28;19905;-78
2023/10/01 01:21:16;;;;;;;6.55;4.03;;;9.60;99.90;;;;;;5035879;28;20026;-78
2023/10/01 01:23:41;;;;;;;6.53;4.03;;;9.50;99.90;;;;;;5036079;28;20421;-78
2023/10/01 01:26:10;;;;;;;5.78;3.17;;;9.40;99.90;;;;;;5035301;28;20455;-78
2023/10/01 01:28:36;;;;;;;5.47;3.13;;;9.40;99.90;;;;;;5017846;28;20026;-78
2023/10/01 01:31:04;;;;;;;5.85;3.85;;;9.40;99.90;;;;;;5035736;28;20120;-78
2023/10/01 01:33:40;;;;;;;7.70;4.78;;;9.30;99.90;;;;;;5035674;28;20052;-78
2023/10/01 01:36:17;;;;;;;8.20;3.58;;;9.40;99.90;;;;;;5036898;28;20068;-78
2023/10/01 01:39:13;;;;;;;7.60;3.20;;;9.40;99.90;;;;;;5036606;28;20412;-78
2023/10/01 01:41:48;;;;;;;8.88;3.08;;;9.40;99.90;;;;;;5036469;28;20403;-78
2023/10/01 01:44:14;;;;;;;7.35;3.17;;;9.40;99.90;;;;;;5018436;28;20375;-78
2023/10/01 01:46:49;;;;;;;10.93;3.40;;;9.40;99.90;;;;;;5035947;28;20351;-78
2023/10/01 01:49:19;;;;;;;7.50;3.28;;;9.30;99.90;;;;;;5036508;28;20021;-78
2023/10/01 01:51:57;;;;;;;22.33;3.90;;;9.30;99.90;;;;;;5035554;28;20033;-77
2023/10/01 01:54:28;;;;;;;7.40;4.30;;;9.30;99.90;;;;;;5036187;28;20048;-78
2023/10/01 01:56:55;;;;;;;8.73;4.97;;;9.20;99.90;;;;;;5035858;28;20041;-78
2023/10/01 01:59:27;;;;;;;9.25;4.53;;;9.20;99.90;;;;;;5035711;28;20025;-78
2023/10/01 02:01:55;;;;;;;6.20;2.95;;;9.10;99.90;;;;;;5034962;28;20025;-78
2023/10/01 02:04:22;;;;;;;11.05;3.55;;;9.20;99.90;;;;;;5034664;28;20013;-78
2023/10/01 02:06:48;;;;;;;7.57;4.00;;;9.20;99.90;;;;;;5020123;28;20037;-79
2023/10/01 02:09:19;;;;;;;8.23;4.28;;;9.10;99.90;;;;;;5020850;28;20021;-78
2023/10/01 02:11:48;;;;;;;5.40;3.42;;;9.10;99.90;;;;;;5035742;28;20088;-79
2023/10/01 02:14:34;;;;;;;7.30;2.88;;;9.20;99.90;;;;;;5035411;28;20021;-79
2023/10/01 02:17:15;;;;;;;5.72;3.15;;;9.20;99.90;;;;;;5017833;28;20072;-79
2023/10/01 02:19:46;;;;;;;7.05;3.95;;;9.20;99.90;;;;;;5018645;28;20027;-78
2023/10/01 02:22:12;;;;;;;8.98;3.83;;;9.10;99.90;;;;;;5021872;28;20095;-80
2023/10/01 02:24:45;;;;;;;8.45;3.42;;;9.20;99.90;;;;;;5041256;28;20037;-79
2023/10/01 02:27:18;;;;;;;13.00;4.63;;;9.30;99.90;;;;;;5023619;28;20032;-79
2023/10/01 02:32:30;;;;;;;7.45;3.03;;;9.20;99.90;;;;;;5045455;28;20036;-79
2023/10/01 02:34:59;;;;;;;3.55;2.97;;;9.20;99.90;;;;;;5026077;28;20022;-79
2023/10/01 02:37:35;;;;;;;8.45;3.75;;;9.10;99.90;;;;;;5024528;28;20041;-78
2023/10/01 02:40:14;;;;;;;9.35;5.18;;;9.00;99.90;;;;;;5025335;28;20183;-79
2023/10/01 02:42:43;;;;;;;6.18;3.83;;;9.00;99.90;;;;;;5044805;28;20076;-79
2023/10/01 02:45:30;;;;;;;2.50;2.17;;;9.00;99.90;;;;;;5045008;28;20021;-79
2023/10/01 02:48:13;;;;;;;11.55;2.55;;;8.90;99.90;;;;;;5050462;28;20031;-78
2023/10/01 02:50:49;;;;;;;8.05;2.47;;;8.80;99.90;;;;;;5048385;28;20028;-79
2023/10/01 02:53:20;;;;;;;6.03;3.45;;;8.80;99.90;;;;;;5030705;28;20043;-79
2023/10/01 02:55:46;;;;;;;5.60;3.10;;;8.80;99.90;;;;;;5030388;28;20128;-79
2023/10/01 02:58:34;;;;;;;5.22;2.72;;;8.80;99.90;;;;;;5029484;28;20021;-78
2023/10/01 03:01:05;;;;;;;6.82;2.90;;;8.80;99.90;;;;;;5029528;28;20434;-79
2023/10/01 03:03:31;;;;;;;5.82;2.88;;;8.80;99.90;;;;;;5027282;28;20022;-79
2023/10/01 03:05:58;;;;;;;4.28;2.30;;;8.80;99.90;;;;;;5028440;28;20075;-78
2023/10/01 03:09:29;;;;;;;7.72;4.03;;;8.80;99.90;;;;;;5026834;28;20044;-77
2023/10/01 03:11:22;;;;;;;8.52;3.88;;;8.70;99.90;;;;;;5032119;28;20033;-79
2023/10/01 03:14:18;;;;;;;7.07;3.55;;;8.90;99.90;;;;;;5044820;28;20021;-78
2023/10/01 03:16:45;;;;;;;8.93;3.15;;;9.00;99.90;;;;;;5027879;28;20086;-78
2023/10/01 03:19:19;;;;;;;8.27;2.95;;;9.00;99.90;;;;;;5027364;28;20021;-78
2023/10/01 03:24:32;;;;;;;4.53;3.70;;;8.90;99.90;;;;;;5055183;28;20104;-80
2023/10/01 03:27:04;;;;;;;4.57;3.08;;;8.90;99.90;;;;;;5030159;28;20040;-79
2023/10/01 03:29:36;;;;;;;2.95;2.35;;;8.90;99.90;;;;;;5031255;28;20370;-79
2023/10/01 03:32:27;;;;;;;3.83;2.47;;;8.70;99.90;;;;;;5037060;28;20052;-82
2023/10/01 03:34:53;;;;;;;2.40;2.28;;;8.60;99.90;;;;;;5044281;28;20021;-82
2023/10/01 03:37:19;;;;;;;4.93;2.85;;;8.50;99.90;;;;;;5023569;28;20037;-78
2023/10/01 03:39:51;;;;;;;4.13;2.80;;;8.40;99.90;;;;;;5041278;28;20017;-78
2023/10/01 03:42:18;;;;;;;5.07;4.15;;;8.40;99.90;;;;;;5026034;28;20025;-79
2023/10/01 03:45:54;;;;;;;5.25;2.95;;;8.40;99.90;;;;;;5024192;28;20032;-78
2023/10/01 03:47:41;;;;;;;12.13;3.13;;;8.40;99.90;;;;;;5028735;28;20093;-78
2023/10/01 03:50:09;;;;;;;4.20;2.22;;;8.40;99.90;;;;;;5041944;28;20047;-79
2023/10/01 03:52:40;;;;;;;5.00;2.42;;;8.40;99.90;;;;;;5041771;28;20484;-78
2023/10/01 03:55:26;;;;;;;4.18;2.78;;;8.40;99.90;;;;;;5019469;28;20473;-78
2023/10/01 03:57:55;;;;;;;3.60;2.90;;;8.40;99.90;;;;;;5018286;28;20136;-78
2023/10/01 04:01:26;;;;;;;6.45;3.15;;;8.30;99.90;;;;;;5036332;28;20029;-77
2023/10/01 04:03:16;;;;;;;6.55;3.97;;;8.30;99.90;;;;;;5023157;28;20037;-78
2023/10/01 04:05:46;;;;;;;6.70;3.47;;;8.40;99.90;;;;;;5036571;28;20048;-78
2023/10/01 04:08:13;;;;;;;6.80;2.88;;;8.40;99.90;;;;;;5018062;28;20021;-78
2023/10/01 04:10:41;;;;;;;4.93;4.10;;;8.40;99.90;;;;;;5018090;28;20026;-78
2023/10/01 04:13:14;;;;;;;7.75;3.83;;;8.30;99.90;;;;;;5035920;28;20048;-78
2023/10/01 04:15:41;;;;;;;5.85;3.05;;;8.20;99.90;;;;;;5035964;28;20025;-77
2023/10/01 04:20:47;;;;;;;5.43;2.65;;;8.30;99.90;;;;;;5036126;28;20035;-78
2023/10/01 04:23:50;;;;;;;4.30;2.75;;;8.20;99.90;;;;;;5036931;28;20041;-78
2023/10/01 04:26:13;;;;;;;5.55;3.65;;;8.20;99.90;;;;;;5034054;28;20445;-78
2023/10/01 04:28:45;;;;;;;;;;;8.20;99.90;;;;;;5037097;28;20025;-78
2023/10/01 04:31:42;;;;;;;5.47;2.75;;;8.10;99.90;;;;;;5035439;28;19905;-78
2023/10/01 04:34:11;;;;;;;9.40;3.33;;;8.00;99.90;;;;;;5038347;28;20059;-79
2023/10/01 04:36:44;;;;;;;7.38;3.63;;;8.00;99.90;;;;;;5020657;28;20422;-78
2023/10/01 04:39:11;;;;;;;8.32;4.00;;;7.90;99.90;;;;;;5020447;28;20048;-78
2023/10/01 04:41:39;;;;;;;12.50;4.20;;;7.90;99.90;;;;;;5037660;28;20028;-78
2023/10/01 04:44:06;;;;;;;7.80;3.78;;;7.90;99.90;;;;;;5020493;28;20060;-78
2023/10/01 04:46:37;;;;;;;9.77;3.50;;;7.90;99.90;;;;;;5038224;28;20029;-78
2023/10/01 04:49:08;;;;;;;9.60;3.80;;;7.90;99.90;;;;;;5035879;28;20025;-78
2023/10/01 04:51:46;;;;;;;8.43;3.83;;;8.00;99.90;;;;;;5034958;28;20496;-78
2023/10/01 04:54:21;;;;;;;4.35;3.45;;;8.00;99.90;;;;;;5035278;28;20405;-78
2023/10/01 04:56:50;;;;;;;3.45;2.83;;;7.90;99.90;;;;;;5035100;28;20037;-78
2023/10/01 04:59:16;;;;;;;4.88;2.92;;;7.90;99.90;;;;;;5017276;28;20440;-78
2023/10/01 05:01:42;;;;;;;7.85;2.88;;;7.90;99.90;;;;;;5017969;28;20033;-78
2023/10/01 05:04:11;;;;;;;4.65;4.05;;;8.00;99.90;;;;;;5018242;28;20026;-78
2023/10/01 05:06:42;;;;;;;11.00;5.28;;;8.00;99.90;;;;;;5034432;28;20025;-78
2023/10/01 05:09:09;;;;;;;5.38;3.17;;;8.10;99.90;;;;;;5036640;28;20076;-78
2023/10/01 05:11:35;;;;;;;5.60;3.03;;;8.20;99.90;;;;;;5040701;28;20018;-78
2023/10/01 05:14:04;;;;;;;4.50;2.42;;;8.10;99.90;;;;;;5040107;28;20056;-78
2023/10/01 05:16:31;;;;;;;;;;;8.10;99.90;;;;;;5020277;28;20029;-78
2023/10/01 05:19:09;;;;;;;4.72;2.33;;;8.10;99.90;;;;;;5037102;28;20281;-78
2023/10/01 05:21:46;;;;;;;7.25;3.63;;;8.00;99.90;;;;;;5035197;28;20054;-78
2023/10/01 05:24:16;;;;;;;9.15;4.32;;;8.10;99.90;;;;;;5017242;28;20063;-78
2023/10/01 05:26:45;;;;;;;9.20;3.33;;;8.10;99.90;;;;;;5034870;28;20032;-78
2023/10/01 05:29:19;;;;;;;3.25;2.42;;;8.10;99.90;;;;;;5017594;28;20029;-78
2023/10/01 05:31:45;;;;;;;7.70;2.25;;;8.00;99.90;;;;;;5017499;28;20028;-77
2023/10/01 05:34:11;;;;;;;5.25;2.33;;;8.00;99.90;;;;;;5035793;28;20029;-78
2023/10/01 05:36:37;;;;;;;4.03;2.03;;;7.90;99.90;;;;;;5036161;28;20048;-78
2023/10/01 05:39:11;;;;;;;6.20;2.70;;;7.90;99.90;;;;;;5036261;28;20022;-78
2023/10/01 05:41:37;;;;;;;3.65;2.38;;;7.90;99.90;;;;;;5036325;28;20048;-78
2023/10/01 05:44:04;;;;;;;2.67;1.90;;;7.80;99.90;;;;;;5018826;28;20021;-78
2023/10/01 05:46:30;;;;;;;5.32;2.05;;;7.80;99.90;;;;;;5035597;28;20028;-78
2023/10/01 05:49:00;;;;;;;2.35;1.77;;;7.80;99.90;;;;;;5036425;28;20524;-78
2023/10/01 05:51:42;;;;;;;3.47;1.92;;;7.90;99.90;;;;;;5019840;28;20071;-79
2023/10/01 05:54:09;;;;;;;6.30;2.70;;;7.90;99.90;;;;;;5018756;28;20067;-77
2023/10/01 05:56:47;;;;;;;3.03;2.63;;;7.90;99.90;;;;;;5017228;28;20041;-78
2023/10/01 05:59:13;;;;;;;8.57;3.30;;;7.90;99.90;;;;;;5016431;28;20040;-78
2023/10/01 06:01:40;;;;;;;7.20;3.17;;;8.00;99.90;;;;;;5016494;28;20021;-78
2023/10/01 06:04:12;;;;;;;5.03;3.08;;;8.10;99.90;;;;;;5034096;28;20153;-77
2023/10/01 06:06:42;;;;;;;5.15;2.83;;;8.10;99.90;;;;;;5016551;28;20075;-77
2023/10/01 06:09:14;;;;;;;7.15;3.17;;;8.10;99.90;;;;;;5016901;28;20022;-78
2023/10/01 06:12:00;;;;;;;7.43;2.90;;;8.20;99.90;;;;;;5017570;28;20025;-77
2023/10/01 06:14:41;;;;;;;3.72;2.50;;;8.10;99.90;;;;;;5038470;28;20021;-77
2023/10/01 06:17:10;;;;;;;6.22;3.30;;;8.20;99.90;;;;;;5040363;28;20044;-77
2023/10/01 06:19:40;;;;;;;5.30;3.53;;;8.30;99.90;;;;;;5024181;28;20056;-78
2023/10/01 06:22:12;;;;;;;5.30;3.83;;;8.40;99.90;;;;;;5042794;28;20060;-79
2023/10/01 06:24:46;;;;;;;6.25;3.42;;;8.50;99.90;;;;;;5025811;28;20025;-79
2023/10/01 06:27:13;;;;;;;12.68;5.85;;;8.60;99.90;;;;;;5036193;28;20025;-78
2023/10/01 06:29:49;;;;;;;8.85;4.25;;;8.70;99.90;;;;;;5016491;28;20018;-78
2023/10/01 06:32:17;;;;;;;9.00;3.20;;;8.80;99.90;;;;;;5021117;28;20025;-78
2023/10/01 06:34:43;;;;;;;6.45;3.40;;;8.90;99.90;;;;;;5018681;28;20026;-79
2023/10/01 06:37:08;;;;;;;4.70;3.22;;;9.00;99.90;;;;;;5038077;28;20482;-81
2023/10/01 06:39:35;;;;;;;6.82;3.72;;;9.00;99.90;;;;;;5046380;28;20026;-82
2023/10/01 06:42:23;;;;;;;4.18;2.55;;;9.00;99.90;;;;;;5027009;28;20030;-78
2023/10/01 06:44:50;;;;;;;7.35;2.90;;;9.10;99.90;;;;;;5021701;28;20021;-77
2023/10/01 06:47:17;;;;;;;6.60;3.05;;;9.20;99.90;;;;;;5021734;28;20120;-78
2023/10/01 06:49:57;;;;;;;7.32;3.40;;;9.30;99.90;;;;;;5037876;28;20025;-78
2023/10/01 06:52:41;;;;;;;7.22;3.90;;;9.60;99.90;;;;;;5038985;28;20046;-77
2023/10/01 06:55:08;;;;;;;12.43;4.95;;;9.80;99.90;;;;;;5021584;28;20104;-76
2023/10/01 06:57:33;;;;;;;6.07;3.40;;;9.90;99.90;;;;;;5039929;28;20064;-78
2023/10/01 07:00:09;;;;;;;7.70;4.15;;;9.90;99.90;;;;;;5022786;28;20032;-78
2023/10/01 07:02:36;;;;;;;7.25;3.40;;;10.00;99.90;;;;;;5028502;28;20079;-77
2023/10/01 07:05:01;;;;;;;6.50;3.13;;;10.10;99.90;;;;;;5028546;28;20018;-78
2023/10/01 07:07:31;;;;;;;7.15;4.25;;;10.30;99.90;;;;;;5045463;28;20017;-78
2023/10/01 07:09:57;;;;;;;7.18;3.95;;;10.40;99.90;;;;;;5045183;28;20032;-77
2023/10/01 07:12:24;;;;;;;6.45;3.30;;;10.60;99.90;;;;;;5042031;28;20021;-77
2023/10/01 07:14:51;;;;;;;10.82;4.53;;;10.70;99.90;;;;;;5042486;28;20089;-78
2023/10/01 07:17:24;;;;;;;9.75;4.07;;;10.80;99.90;;;;;;5024114;28;20036;-79
2023/10/01 07:20:00;;;;;;;7.95;4.32;;;10.90;99.90;;;;;;5016358;28;20022;-77
2023/10/01 07:22:30;;;;;;;5.65;4.68;;;11.00;99.90;;;;;;5033301;28;20080;-77
2023/10/01 07:24:59;;;;;;;9.27;4.20;;;11.20;99.90;;;;;;5020332;28;20120;-79
2023/10/01 07:27:25;;;;;;;7.45;3.15;;;11.30;99.90;;;;;;5016748;28;20144;-78
2023/10/01 07:29:54;;;;;;;14.52;4.22;;;11.40;99.90;;;;;;5036843;28;20109;-78
2023/10/01 07:32:20;;;;;;;5.30;3.65;;;11.60;99.90;;;;;;5038869;28;20117;-78
2023/10/01 07:34:48;;;;;;;7.13;3.83;;;11.70;99.90;;;;;;5041615;28;20036;-79
2023/10/01 07:37:25;;;;;;;9.65;4.90;;;11.80;99.90;;;;;;5046968;28;20397;-78
2023/10/01 07:39:55;;;;;;;8.05;4.20;;;12.00;99.90;;;;;;5029324;28;20044;-77
2023/10/01 07:42:28;;;;;;;6.25;4.13;;;12.20;99.90;;;;;;5042431;28;20454;-78
2023/10/01 07:44:56;;;;;;;9.32;4.75;;;12.40;99.90;;;;;;5026461;28;20056;-78
2023/10/01 07:47:28;;;;;;;3.92;3.25;;;12.40;99.90;;;;;;5024008;28;20299;-79
2023/10/01 07:50:12;;;;;;;4.82;3.60;;;12.50;99.90;;;;;;5037264;28;20052;-78
2023/10/01 07:52:41;;;;;;;5.13;3.47;;;12.50;99.90;;;;;;5044231;28;20018;-79
2023/10/01 07:58:22;;;;;;;5.70;3.83;;;12.70;99.90;;;;;;5046821;28;20309;-78
2023/10/01 08:00:44;;;;;;;8.90;4.13;;;12.80;99.90;;;;;;5046475;28;20024;-76
2023/10/01 08:05:49;;;;;;;9.07;5.38;;;12.90;99.90;;;;;;5046585;28;20044;-77
2023/10/01 08:08:37;;;;;;;6.85;4.47;;;13.00;99.90;;;;;;5046458;28;20017;-78
2023/10/01 08:13:51;;;;;;;11.85;3.47;;;13.20;99.90;;;;;;5046421;28;20020;-77
2023/10/01 08:16:20;;;;;;;6.40;3.92;;;13.40;99.90;;;;;;5046357;28;20025;-79
2023/10/01 08:18:46;;;;;;;10.80;4.00;;;13.40;99.90;;;;;;5046486;28;20025;-77
2023/10/01 08:21:18;;;;;;;9.20;4.00;;;13.50;99.90;;;;;;5046080;28;20309;-77
2023/10/01 08:23:54;;;;;;;10.38;3.67;;;13.60;99.90;;;;;;5046182;28;20391;-78
2023/10/01 08:29:06;;;;;;;12.48;5.15;;;13.90;99.90;;;;;;5046085;28;20064;-78
2023/10/01 08:34:23;;;;;;;9.75;5.15;;;14.20;99.90;;;;;;5046315;28;20017;-78
2023/10/01 08:36:55;;;;;;;8.80;4.55;;;14.30;99.90;;;;;;5045779;28;20386;-78
2023/10/01 08:40:13;;;;;;;14.23;4.63;;;14.40;99.90;;;;;;5046173;28;20024;-78
2023/10/01 08:42:10;;;;;;;9.05;5.07;;;14.50;99.90;;;;;;5037646;28;20029;-79
2023/10/01 08:45:08;;;;;;;14.03;4.30;;;14.60;99.90;;;;;;5045206;28;20048;-77
2023/10/01 08:47:34;;;;;;;11.73;3.65;;;14.70;99.90;;;;;;5045299;28;20013;-78
2023/10/01 08:50:16;;;;;;;10.48;5.55;;;14.70;99.90;;;;;;5045008;28;20374;-77
2023/10/01 08:52:52;;;;;;;9.25;4.28;;;14.80;99.90;;;;;;5027109;28;20112;-77
2023/10/01 09:00:52;;;;;;;7.85;3.90;;;15.20;99.90;;;;;;5045307;28;20040;-77
2023/10/01 09:03:34;;;;;;;10.48;4.95;;;15.30;99.90;;;;;;5044970;28;20027;-77
2023/10/01 09:06:03;;;;;;;10.55;4.80;;;15.40;99.90;;;;;;5044862;28;20017;-78
2023/10/01 09:08:45;;;;;;;11.50;4.70;;;15.60;99.90;;;;;;5045477;28;20014;-77
2023/10/01 09:11:15;;;;;;;10.73;4.78;;;15.70;99.90;;;;;;5027838;28;20021;-76
2023/10/01 09:13:58;;;;;;;17.30;6.50;;;15.80;99.90;;;;;;5030239;28;20017;-78
2023/10/01 09:16:33;;;;;;;10.75;4.57;;;16.00;99.90;;;;;;5047381;28;20391;-78
2023/10/01 09:21:46;;;;;;;13.35;5.63;;;16.10;99.90;;;;;;5035345;28;20084;-78
2023/10/01 09:24:43;;;;;;;12.85;5.63;;;16.20;99.90;;;;;;5042588;28;20414;-79
2023/10/01 09:27:21;;;;;;;14.18;6.05;;;16.50;99.90;;;;;;5033998;28;20411;-78
2023/10/01 09:29:56;;;;;;;10.52;4.55;;;16.60;99.90;;;;;;5034140;28;20022;-77
2023/10/01 09:32:54;;;;;;;10.05;4.78;;;16.70;99.90;;;;;;5033948;28;20113;-77
2023/10/01 09:35:39;;;;;;;6.68;3.90;;;16.80;99.90;;;;;;5016130;28;20076;-77
2023/10/01 09:38:12;;;;;;;12.43;3.92;;;16.90;99.90;;;;;;5033704;28;20452;-77
2023/10/01 09:40:44;;;;;;;21.05;6.10;;;16.90;99.90;;;;;;5033903;28;20022;-77
2023/10/01 09:43:34;;;;;;;13.77;5.43;;;17.00;99.90;;;;;;5033605;28;20026;-77
2023/10/01 09:46:06;;;;;;;13.27;5.72;;;17.10;99.90;;;;;;5034074;28;20021;-77
2023/10/01 09:48:34;;;;;;;13.02;5.10;;;17.20;99.90;;;;;;5033668;28;20029;-76
2023/10/01 09:51:16;;;;;;;12.20;4.65;;;17.20;99.90;;;;;;5033701;28;20446;-77
2023/10/01 09:53:44;;;;;;;10.65;5.20;;;17.40;99.90;;;;;;5032623;28;20068;-78
2023/10/01 09:56:13;;;;;;;12.20;4.63;;;17.50;99.90;;;;;;5033325;28;20040;-76
2023/10/01 09:58:46;;;;;;;10.50;5.15;;;17.60;99.90;;;;;;5033363;28;20018;-78
2023/10/01 10:01:13;;;;;;;10.35;4.22;;;17.60;99.90;;;;;;5033354;28;20087;-77
2023/10/01 10:03:42;;;;;;;7.72;4.45;;;17.70;99.90;;;;;;5015373;28;20029;-77
2023/10/01 10:06:09;;;;;;;8.80;4.72;;;17.80;99.90;;;;;;5015933;28;20503;-77
2023/10/01 10:08:37;;;;;;;14.35;6.45;;;17.90;99.90;;;;;;5033635;28;20030;-76
2023/10/01 10:11:08;;;;;;;11.93;4.93;;;18.00;99.90;;;;;;5015647;28;20022;-77
2023/10/01 10:13:48;;;;;;;13.55;4.85;;;18.10;99.90;;;;;;5015372;28;20068;-77
2023/10/01 10:16:30;;;;;;;14.40;5.53;;;18.20;99.90;;;;;;5015126;28;20029;-77
2023/10/01 10:19:08;;;;;;;12.95;6.50;;;18.30;99.90;;;;;;5032867;28;20040;-77
2023/10/01 10:24:46;;;;;;;15.65;5.28;;;18.50;99.90;;;;;;5033607;28;20121;-77
2023/10/01 10:27:24;;;;;;;14.68;6.35;;;18.70;99.90;;;;;;5015509;28;20021;-77
2023/10/01 10:29:56;;;;;;;12.82;5.13;;;18.70;99.90;;;;;;5033316;28;20025;-79
2023/10/01 10:32:31;;;;;;;10.68;4.32;;;18.70;99.90;;;;;;5015185;28;20036;-79
2023/10/01 10:35:06;;;;;;;9.68;4.20;;;18.90;99.90;;;;;;5042822;28;20071;-77
2023/10/01 10:37:38;;;;;;;15.40;4.70;;;18.90;99.90;;;;;;5042288;28;20071;-77
2023/10/01 10:40:22;;;;;;;12.50;4.32;;;19.00;99.90;;;;;;5037985;28;20022;-77
2023/10/01 10:42:57;;;;;;;13.30;4.57;;;19.00;99.90;;;;;;5016996;28;20057;-77
2023/10/01 10:45:26;;;;;;;8.05;4.15;;;19.20;99.90;;;;;;5033014;28;20017;-79
2023/10/01 10:48:04;;;;;;;12.05;4.63;;;19.40;99.90;;;;;;5017778;28;20079;-78
2023/10/01 10:50:48;;;;;;;13.23;5.40;;;19.60;99.90;;;;;;5034363;28;20036;-78
2023/10/01 10:53:21;;;;;;;10.70;4.82;;;19.60;99.90;;;;;;5033792;28;20022;-77
2023/10/01 10:56:02;;;;;;;12.02;4.45;;;19.80;99.90;;;;;;5033018;28;20536;-78
2023/10/01 10:58:37;;;;;;;10.23;4.47;;;19.70;99.90;;;;;;5032805;28;20025;-78
2023/10/01 11:01:15;;;;;;;9.65;4.97;;;19.90;99.90;;;;;;5022364;28;20025;-78
2023/10/01 11:03:57;;;;;;;13.00;4.75;;;19.90;99.90;;;;;;5018999;28;20497;-77
2023/10/01 11:07:05;;;;;;;13.23;4.55;;;19.80;99.90;;;;;;5035908;28;20037;-78
2023/10/01 11:09:26;;;;;;;12.02;4.93;;;19.90;99.90;;;;;;5034235;28;20037;-77
2023/10/01 11:12:02;;;;;;;11.43;4.53;;;20.10;99.90;;;;;;5018729;28;20049;-77
2023/10/01 11:14:27;;;;;;;7.93;4.15;;;20.10;99.90;;;;;;5018723;28;20033;-77
2023/10/01 11:16:54;;;;;;;9.10;4.78;;;20.20;99.90;;;;;;5018615;28;20025;-78
2023/10/01 11:19:35;;;;;;;7.63;4.82;;;20.20;99.90;;;;;;5036379;28;20044;-78
2023/10/01 11:22:06;;;;;;;11.75;4.88;;;20.30;99.90;;;;;;5036338;28;20041;-78
2023/10/01 11:24:39;;;;;;;14.32;5.88;;;20.40;99.90;;;;;;5036317;28;20462;-78
2023/10/01 11:27:43;;;;;;;10.07;4.53;;;20.60;99.90;;;;;;5036044;28;20021;-78
2023/10/01 11:30:17;;;;;;;9.85;5.00;;;20.70;99.90;;;;;;5037861;28;20056;-78
2023/10/01 11:36:07;;;;;;;11.02;5.07;;;20.90;99.90;;;;;;5036448;28;20531;-78
2023/10/01 11:38:53;;;;;;;13.40;4.68;;;21.10;99.90;;;;;;5018427;28;20123;-78
2023/10/01 11:41:38;;;;;;;11.45;4.65;;;21.30;99.90;;;;;;5018236;28;20044;-77
2023/10/01 11:44:05;;;;;;;12.70;5.72;;;21.50;99.90;;;;;;5036322;28;20041;-78
2023/10/01 11:46:34;;;;;;;10.20;5.57;;;21.50;99.90;;;;;;5035683;28;20022;-78
2023/10/01 11:49:06;;;;;;;;;;;21.70;99.90;;;;;;5018366;28;20017;-78
2023/10/01 11:52:21;;;;;;;13.55;4.78;;;21.90;99.90;;;;;;5018100;28;19982;-78
2023/10/01 11:54:44;;;;;;;12.70;5.43;;;22.10;99.90;;;;;;5027799;28;20033;-79
2023/10/01 11:57:25;;;;;;;10.13;5.18;;;22.20;99.90;;;;;;5018930;28;20037;-84
2023/10/01 11:59:56;;;;;;;11.65;4.63;;;22.20;99.90;;;;;;5019759;28;20022;-84
2023/10/01 12:02:26;;;;;;;12.85;5.30;;;22.50;99.90;;;;;;5018396;28;20030;-79
2023/10/01 12:04:57;;;;;;;10.88;4.72;;;22.80;99.90;;;;;;5035555;28;20025;-77
2023/10/01 12:07:40;;;;;;;12.18;4.55;;;23.20;99.90;;;;;;5035977;28;20105;-80
2023/10/01 12:10:07;;;;;;;10.70;5.30;;;24.30;99.90;;;;;;5027168;28;20021;-78
2023/10/01 12:12:37;;;;;;;9.85;4.63;;;26.30;98.20;;;;;;5053398;28;20379;-78
2023/10/01 12:17:47;;;;;;;7.10;4.25;;;28.40;90.40;;;;;;5034341;28;20133;-79
2023/10/01 12:20:22;;;;;;;13.70;5.40;;;29.10;86.60;;;;;;5037503;28;20049;-77
2023/10/01 12:25:45;;;;;;;13.40;4.70;;;29.80;81.30;;;;;;5035413;28;20473;-77
2023/10/01 12:28:18;;;;;;;10.35;4.93;;;30.40;76.50;;;;;;5035251;28;20032;-78
2023/10/01 12:30:57;;;;;;;13.02;5.25;;;30.70;74.50;;;;;;5035033;28;20026;-77
2023/10/01 12:33:43;;;;;;;14.02;4.40;;;30.20;72.40;;;;;;5017338;28;20061;-77
2023/10/01 12:36:31;;;;;;;13.50;6.00;;;30.20;73.10;;;;;;5035269;28;20030;-78
2023/10/01 12:44:25;;;;;;;7.97;4.55;;;32.70;67.30;;;;;;5035000;28;20061;-78
2023/10/01 12:46:54;;;;;;;10.95;5.18;;;33.90;64.00;;;;;;5017758;28;20480;-77
2023/10/01 12:49:20;;;;;;;11.10;4.88;;;33.20;63.40;;;;;;5041661;28;20021;-78
2023/10/01 12:51:53;;;;;;;7.10;3.92;;;32.30;63.20;;;;;;5034842;28;20053;-77
2023/10/01 12:54:25;;;;;;;15.40;6.03;;;30.80;63.70;;;;;;5035666;28;20026;-77
2023/10/01 12:59:40;;;;;;;12.52;5.25;;;31.40;63.30;;;;;;5043448;28;20035;-78
2023/10/01 13:02:28;;;;;;;11.40;5.07;;;32.30;64.30;;;;;;5043611;28;20021;-77
2023/10/01 13:05:16;;;;;;;10.80;5.32;;;33.20;61.90;;;;;;5044012;28;20278;-78
2023/10/01 13:07:53;;;;;;;10.10;5.00;;;33.50;60.00;;;;;;5026281;28;20028;-77
2023/10/01 13:10:33;;;;;;;13.45;4.95;;;34.10;60.90;;;;;;5025879;28;20036;-77
2023/10/01 13:13:01;;;;;;;13.75;4.97;;;34.40;58.30;;;;;;5043289;28;20097;-77
2023/10/01 13:15:29;;;;;;;15.18;4.68;;;35.30;57.30;;;;;;5043276;28;20213;-75
2023/10/01 13:18:04;;;;;;;9.10;4.57;;;34.50;57.50;;;;;;5025195;28;20025;-81
2023/10/01 13:20:46;;;;;;;10.52;5.15;;;34.20;57.80;;;;;;5043245;28;20021;-78
2023/10/01 13:23:12;;;;;;;9.65;4.53;;;33.40;59.00;;;;;;5035715;28;20077;-78
2023/10/01 13:25:42;;;;;;;13.93;5.65;;;32.00;60.70;;;;;;5034149;28;20028;-78
2023/10/01 13:28:18;;;;;;;12.50;6.35;;;31.50;60.60;;;;;;5033949;28;20075;-78
2023/10/01 13:33:29;;;;;;;11.65;5.80;;;33.60;59.10;;;;;;5034200;28;20032;-77
2023/10/01 13:35:58;;;;;;;12.98;6.10;;;33.20;56.70;;;;;;5034033;28;20489;-78
2023/10/01 14:11:04;;;;;;;10.77;4.38;;;35.40;54.30;;;;;;5043744;28;20023;-75
2023/10/01 14:13:34;;;;;;;10.80;5.07;;;34.90;53.50;;;;;;5043569;28;20313;-72
2023/10/01 14:18:55;;;;;;;10.15;4.80;;;34.80;54.90;;;;;;5043810;28;20028;-73
2023/10/01 14:21:22;;;;;;;8.20;4.25;;;34.80;54.20;;;;;;5043362;28;20049;-72
2023/10/01 14:23:57;;;;;;;8.68;4.18;;;35.30;54.20;;;;;;5043421;28;20017;-75
2023/10/01 14:26:35;;;;;;;10.30;4.72;;;34.30;52.70;;;;;;5043525;28;20272;-76
2023/10/01 14:29:05;;;;;;;11.82;5.35;;;33.90;53.90;;;;;;5043429;28;20028;-73
2023/10/01 14:31:50;;;;;;;13.23;5.40;;;32.00;56.60;;;;;;5041770;28;20170;-76
2023/10/01 14:34:22;;;;;;;13.02;5.70;;;31.50;57.40;;;;;;5041817;28;20096;-75
2023/10/01 14:36:51;;;;;;;9.85;4.95;;;32.00;56.70;;;;;;5042107;28;20029;-75
2023/10/01 14:39:18;;;;;;;16.65;5.45;;;32.60;56.70;;;;;;5036153;28;20018;-77
2023/10/01 14:41:50;;;;;;;12.52;5.30;;;33.10;55.90;;;;;;5036002;28;20026;-74
2023/10/01 14:44:24;;;;;;;9.85;4.43;;;33.70;55.30;;;;;;5042602;28;20017;-76